Time;durP1;ratioP1;P1;durP2;ratioP2;P2;SDS_P1;SDS_P2;PMS_P1;PMS_P2;Temp;Humidity;BMP_temperature;BMP_pressure;BME280_temperature;BME280_humidity;BME280_pressure;Samples;Min_cycle;Max_cycle;Signal;HPM_P1;HPM_P2
2022/11/24 00:01:15;;;;;;;;;;;;;;;-144.99;100.00;52529.63;5053959;28;19956;-65
2022/11/24 00:03:42;;;;;;;;;;;;;;;-144.99;100.00;52550.00;5060863;28;20003;-65
2022/11/24 00:06:09;;;;;;;;;;;;;;;-144.99;100.00;52566.31;5070800;28;20288;-65
2022/11/24 00:08:36;;;;;;;;;;;;;;;-144.99;100.00;52515.34;5070630;28;19989;-65
2022/11/24 00:11:04;;;;;;;;;;;;;;;-144.99;100.00;52545.94;5070642;28;19965;-64
2022/11/24 00:13:30;;;;;;;;;;;;;;;-144.99;100.00;52562.25;5053934;28;19950;-64
2022/11/24 00:16:05;;;;;;;;;;;;;;;-144.99;100.00;52541.84;5065262;28;19944;-70
2022/11/24 00:18:32;;;;;;;;;;;;;;;-144.99;100.00;52541.84;5051596;28;19943;-71
2022/11/24 00:20:59;;;;;;;;;;;;;;;-144.99;100.00;52539.81;5071115;28;19961;-71
2022/11/24 00:23:25;;;;;;;;;;;;;;;-144.99;100.00;52582.63;5069002;28;19947;-71
2022/11/24 00:25:52;;;;;;;;;;;;;;;-144.99;100.00;52501.09;5055499;28;20471;-71
2022/11/24 00:28:19;;;;;;;;;;;;;;;-144.99;100.00;52509.25;5065243;28;19966;-71
2022/11/24 00:30:45;;;;;;;;;;;;;;;-144.99;100.00;52521.47;5064910;28;19994;-72
2022/11/24 00:33:13;;;;;;;;;;;;;;;-144.99;100.00;52545.94;5068635;28;19959;-71
2022/11/24 00:35:40;;;;;;;;;;;;;;;-144.99;100.00;52537.78;5062128;28;20058;-71
2022/11/24 00:38:07;;;;;;;;;;;;;;;-144.99;100.00;52537.78;5067737;28;19946;-70
2022/11/24 00:40:33;;;;;;;;;;;;;;;-144.99;100.00;52513.31;5067577;28;19937;-70
2022/11/24 00:43:00;;;;;;;;;;;;;;;-144.99;100.00;52525.56;5053488;28;20361;-70
2022/11/24 00:45:27;;;;;;;;;;;;;;;-144.99;100.00;52545.94;5059558;28;20363;-69
2022/11/24 00:47:53;;;;;;;;;;;;;;;-144.99;100.00;52554.09;5061640;28;19937;-70
2022/11/24 00:50:21;;;;;;;;;;;;;;;-144.99;100.00;52550.00;5051206;28;19949;-69
2022/11/24 00:52:48;;;;;;;;;;;;;;;-144.99;100.00;52562.25;5068215;28;19962;-70
2022/11/24 00:55:15;;;;;;;;;;;;;;;-144.99;100.00;52554.09;5063685;28;20310;-69
2022/11/24 00:57:41;;;;;;;;;;;;;;;-144.99;100.00;52525.56;5061440;28;19943;-70
2022/11/24 01:00:09;;;;;;;;;;;;;;;-144.99;100.00;52578.53;5061927;28;19950;-70
2022/11/24 01:02:37;;;;;;;;;;;;;;;-144.99;100.00;52529.63;5061198;28;19955;-70
2022/11/24 01:05:04;;;;;;;;;;;;;;;-144.99;100.00;52529.63;5059570;28;19943;-70
2022/11/24 01:07:34;;;;;;;;;;;;;;;-144.99;100.00;52562.25;5068089;28;19996;-69
2022/11/24 01:10:01;;;;;;;;;;;;;;;-144.99;100.00;52554.09;5057350;28;19942;-69
2022/11/24 01:12:28;;;;;;;;;;;;;;;-144.99;100.00;52509.25;5064800;28;20433;-68
2022/11/24 01:14:54;;;;;;;;;;;;;;;-144.99;100.00;52531.66;5063005;28;19948;-69
2022/11/24 01:17:21;;;;;;;;;;;;;;;-144.99;100.00;52562.25;5058569;28;20419;-68
2022/11/24 01:19:48;;;;;;;;;;;;;;;-144.99;100.00;52541.84;5061649;28;20402;-67
2022/11/24 01:22:14;;;;;;;;;;;;;;;-144.99;100.00;52529.63;5065589;28;19963;-65
2022/11/24 01:24:42;;;;;;;;;;;;;;;-144.99;100.00;52525.56;5059777;28;20398;-65
2022/11/24 01:27:09;;;;;;;;;;;;;;;-144.99;100.00;52501.09;5064705;28;19949;-65
2022/11/24 01:29:36;;;;;;;;;;;;;;;-144.99;100.00;52574.47;5063176;28;19935;-66
2022/11/24 01:32:02;;;;;;;;;;;;;;;-144.99;100.00;52517.41;5061879;28;20045;-66
2022/11/24 01:34:29;;;;;;;;;;;;;;;-144.99;100.00;52541.84;5062642;28;20307;-65
2022/11/24 01:36:56;;;;;;;;;;;;;;;-144.99;100.00;52547.97;5061972;28;19983;-65
2022/11/24 01:39:22;;;;;;;;;;;;;;;-144.99;100.00;52529.63;5060524;28;19945;-67
2022/11/24 01:41:51;;;;;;;;;;;;;;;-144.99;100.00;52556.13;5057583;28;19962;-65
2022/11/24 01:44:22;;;;;;;;;;;;;;;-144.99;100.00;52576.50;5055941;28;20053;-65
2022/11/24 01:46:51;;;;;;;;;;;;;;;-144.99;100.00;52547.97;5060943;28;19951;-65
2022/11/24 01:49:20;;;;;;;;;;;;;;;-144.99;100.00;52517.41;5063984;28;20301;-66
2022/11/24 01:51:49;;;;;;;;;;;;;;;-144.99;100.00;52558.16;5060702;28;20887;-66
2022/11/24 01:54:18;;;;;;;;;;;;;;;-144.99;100.00;52558.16;5060440;28;20144;-66
2022/11/24 01:56:46;;;;;;;;;;;;;;;-144.99;100.00;52529.63;5058070;28;19958;-66
2022/11/24 01:59:16;;;;;;;;;;;;;;;-144.99;100.00;52545.94;5067904;28;19942;-73
2022/11/24 02:01:46;;;;;;;;;;;;;;;-144.99;100.00;52554.09;5061414;28;20040;-72
2022/11/24 02:04:14;;;;;;;;;;;;;;;-144.99;100.00;52545.94;5053251;28;19956;-72
2022/11/24 02:06:42;;;;;;;;;;;;;;;-144.99;100.00;52509.25;5055751;28;19942;-71
2022/11/24 02:09:13;;;;;;;;;;;;;;;-144.99;100.00;52517.41;5064482;28;20415;-71
2022/11/24 02:11:40;;;;;;;;;;;;;;;-144.99;100.00;52537.78;5056692;28;19955;-69
2022/11/24 02:14:08;;;;;;;;;;;;;;;-144.99;100.00;52562.25;5057902;28;19958;-68
2022/11/24 02:16:36;;;;;;;;;;;;;;;-144.99;100.00;52550.00;5066968;28;19942;-68
2022/11/24 02:19:07;;;;;;;;;;;;;;;-144.99;100.00;52513.31;5062989;28;19953;-68
2022/11/24 02:21:34;;;;;;;;;;;;;;;-144.99;100.00;52545.94;5066546;28;19951;-68
2022/11/24 02:24:03;;;;;;;;;;;;;;;-144.99;100.00;52529.63;5070772;28;19935;-68
2022/11/24 02:26:38;;;;;;;;;;;;;;;-144.99;100.00;52505.16;5060711;28;20045;-69
2022/11/24 02:29:06;;;;;;;;;;;;;;;-144.99;100.00;52558.16;5060146;28;20277;-67
2022/11/24 02:31:33;;;;;;;;;;;;;;;-144.99;100.00;52511.28;5068913;28;19950;-70
2022/11/24 02:33:59;;;;;;;;;;;;;;;-144.99;100.00;52568.34;5065064;28;19955;-72
2022/11/24 02:36:26;;;;;;;;;;;;;;;-144.99;100.00;52523.50;5060703;28;20013;-72
2022/11/24 02:38:52;;;;;;;;;;;;;;;-144.99;100.00;52513.31;5066409;28;19946;-72
2022/11/24 02:41:21;;;;;;;;;;;;;;;-144.99;100.00;52501.09;5067335;28;19979;-72
2022/11/24 02:43:55;;;;;;;;;;;;;;;-144.99;100.00;52517.41;5065063;28;19947;-72
2022/11/24 02:46:21;;;;;;;;;;;;;;;-144.99;100.00;52566.31;5071053;28;20262;-73
2022/11/24 02:48:48;;;;;;;;;;;;;;;-144.99;100.00;52517.41;5076961;28;19937;-72
2022/11/24 02:51:15;;;;;;;;;;;;;;;-144.99;100.00;52558.16;5065374;28;20497;-72
2022/11/24 02:53:41;;;;;;;;;;;;;;;-144.99;100.00;52590.78;5069908;28;19962;-67
2022/11/24 02:56:08;;;;;;;;;;;;;;;-144.99;100.00;52558.16;5063374;28;19945;-68
2022/11/24 02:58:35;;;;;;;;;;;;;;;-144.99;100.00;52513.31;5061960;28;19934;-67
2022/11/24 03:01:03;;;;;;;;;;;;;;;-144.99;100.00;52590.78;5068481;28;19967;-67
2022/11/24 03:03:29;;;;;;;;;;;;;;;-144.99;100.00;52537.78;5065359;28;19939;-67
2022/11/24 03:05:56;;;;;;;;;;;;;;;-144.99;100.00;52505.16;5063985;28;19950;-66
2022/11/24 03:08:22;;;;;;;;;;;;;;;-144.99;100.00;52550.00;5070399;28;20711;-66
2022/11/24 03:10:49;;;;;;;;;;;;;;;-144.99;100.00;52566.31;5070190;28;20543;-69
2022/11/24 03:13:16;;;;;;;;;;;;;;;-144.99;100.00;52529.63;5068557;28;19962;-67
2022/11/24 03:15:42;;;;;;;;;;;;;;;-144.99;100.00;52558.16;5070122;28;20411;-66
2022/11/24 03:18:10;;;;;;;;;;;;;;;-144.99;100.00;52533.69;5065817;28;19941;-68
2022/11/24 03:20:37;;;;;;;;;;;;;;;-144.99;100.00;52486.81;5069168;28;19944;-66
2022/11/24 03:23:03;;;;;;;;;;;;;;;-144.99;100.00;52523.50;5068321;28;19943;-66
2022/11/24 03:25:30;;;;;;;;;;;;;;;-144.99;100.00;52488.84;5066885;28;20314;-68
2022/11/24 03:27:57;;;;;;;;;;;;;;;-144.99;100.00;52517.41;5067089;28;19963;-69
2022/11/24 03:30:23;;;;;;;;;;;;;;;-144.99;100.00;52523.50;5073805;28;19935;-68
2022/11/24 03:32:51;;;;;;;;;;;;;;;-144.99;100.00;52564.28;5069414;28;19965;-67
2022/11/24 03:35:19;;;;;;;;;;;;;;;-144.99;100.00;52511.28;5066570;28;19979;-68
2022/11/24 03:37:45;;;;;;;;;;;;;;;-144.99;100.00;52554.09;5063975;28;19947;-67
2022/11/24 03:40:12;;;;;;;;;;;;;;;-144.99;100.00;52525.56;5065411;28;19941;-67
2022/11/24 03:42:39;;;;;;;;;;;;;;;-144.99;100.00;52554.09;5062917;28;20447;-67
2022/11/24 03:45:06;;;;;;;;;;;;;;;-144.99;100.00;52543.91;5076867;28;20425;-67
2022/11/24 03:47:33;;;;;;;;;;;;;;;-144.99;100.00;52550.00;5065608;28;20216;-66
2022/11/24 03:50:00;;;;;;;;;;;;;;;-144.99;100.00;52521.47;5063384;28;19950;-68
2022/11/24 03:52:28;;;;;;;;;;;;;;;-144.99;100.00;52554.09;5063952;28;20333;-68
2022/11/24 03:54:54;;;;;;;;;;;;;;;-144.99;100.00;52539.81;5069770;28;19944;-67
2022/11/24 03:57:21;;;;;;;;;;;;;;;-144.99;100.00;52550.00;5059949;28;20033;-67
2022/11/24 03:59:47;;;;;;;;;;;;;;;-144.99;100.00;52513.31;5066165;28;20184;-67
2022/11/24 04:02:14;;;;;;;;;;;;;;;-144.99;100.00;52547.97;5069841;28;19958;-67
2022/11/24 04:04:41;;;;;;;;;;;;;;;-144.99;100.00;52517.41;5065886;28;19935;-64
2022/11/24 04:07:07;;;;;;;;;;;;;;;-144.99;100.00;52541.84;5062595;28;19940;-66
2022/11/24 04:09:35;;;;;;;;;;;;;;;-144.99;100.00;52545.94;5057076;28;19935;-66
2022/11/24 04:14:46;;;;;;;;;;;;;;;-144.99;100.00;52521.47;5069223;28;20594;-66
2022/11/24 04:17:12;;;;;;;;;;;;;;;-144.99;100.00;52572.44;5058659;28;20486;-65
2022/11/24 04:19:39;;;;;;;;;;;;;;;-144.99;100.00;52529.63;5060900;28;19935;-66
2022/11/24 04:22:05;;;;;;;;;;;;;;;-144.99;100.00;52529.63;5066757;28;20314;-66
2022/11/24 04:24:32;;;;;;;;;;;;;;;-144.99;100.00;52537.78;5069031;28;19988;-67
2022/11/24 04:27:00;;;;;;;;;;;;;;;-144.99;100.00;52558.16;5065702;28;19932;-66
2022/11/24 04:29:26;;;;;;;;;;;;;;;-144.99;100.00;52558.16;5065254;28;19942;-65
2022/11/24 04:31:53;;;;;;;;;;;;;;;-144.99;100.00;52543.91;5055210;28;19953;-65
2022/11/24 04:34:19;;;;;;;;;;;;;;;-144.99;100.00;52509.25;5067478;28;20367;-64
2022/11/24 04:36:46;;;;;;;;;;;;;;;-144.99;100.00;52525.56;5066311;28;19940;-64
2022/11/24 04:39:12;;;;;;;;;;;;;;;-144.99;100.00;52554.09;5062807;28;19985;-65
2022/11/24 04:41:39;;;;;;;;;;;;;;;-144.99;100.00;52539.81;5062777;28;20004;-66
2022/11/24 04:44:07;;;;;;;;;;;;;;;-144.99;100.00;52554.09;5056129;28;19944;-65
2022/11/24 04:46:33;;;;;;;;;;;;;;;-144.99;100.00;52537.78;5061170;28;19936;-67
2022/11/24 04:49:00;;;;;;;;;;;;;;;-144.99;100.00;52554.09;5057382;28;20002;-66
2022/11/24 04:51:26;;;;;;;;;;;;;;;-144.99;100.00;52558.16;5056165;28;20016;-68
2022/11/24 04:53:53;;;;;;;;;;;;;;;-144.99;100.00;52537.78;5053574;28;20410;-67
2022/11/24 04:56:19;;;;;;;;;;;;;;;-144.99;100.00;52545.94;5061466;28;20201;-68
2022/11/24 04:58:48;;;;;;;;;;;;;;;-144.99;100.00;52525.56;5060910;28;20028;-68
2022/11/24 05:01:15;;;;;;;;;;;;;;;-144.99;100.00;52566.31;5067114;28;20434;-68
2022/11/24 05:03:42;;;;;;;;;;;;;;;-144.99;100.00;52574.47;5064824;28;19935;-68
2022/11/24 05:06:09;;;;;;;;;;;;;;;-144.99;100.00;52525.56;5059628;28;19945;-68
2022/11/24 05:08:35;;;;;;;;;;;;;;;-144.99;100.00;52531.66;5059766;28;19976;-67
2022/11/24 05:11:03;;;;;;;;;;;;;;;-144.99;100.00;52558.16;5057092;28;19974;-69
2022/11/24 05:13:30;;;;;;;;;;;;;;;-144.99;100.00;52558.16;5063066;28;19956;-68
2022/11/24 05:15:56;;;;;;;;;;;;;;;-144.99;100.00;52556.13;5068105;28;20235;-70
2022/11/24 05:18:24;;;;;;;;;;;;;;;-144.99;100.00;52523.50;5054884;28;19935;-71
2022/11/24 05:20:51;;;;;;;;;;;;;;;-144.99;100.00;52550.00;5064053;28;19957;-70
2022/11/24 05:23:18;;;;;;;;;;;;;;;-144.99;100.00;52529.63;5054618;28;20133;-72
2022/11/24 05:25:44;;;;;;;;;;;;;;;-144.99;100.00;52501.09;5064911;28;19994;-73
2022/11/24 05:28:11;;;;;;;;;;;;;;;-144.99;100.00;52521.47;5052726;28;19969;-71
2022/11/24 05:30:38;;;;;;;;;;;;;;;-144.99;100.00;52550.00;5062291;28;20123;-70
2022/11/24 05:33:05;;;;;;;;;;;;;;;-144.99;100.00;52529.63;5060136;28;20204;-69
2022/11/24 05:35:33;;;;;;;;;;;;;;;-144.99;100.00;52558.16;5063366;28;20212;-71
2022/11/24 05:38:00;;;;;;;;;;;;;;;-144.99;100.00;52531.66;5060321;28;20304;-71
2022/11/24 05:40:26;;;;;;;;;;;;;;;-144.99;100.00;52582.63;5066861;28;19962;-69
2022/11/24 05:42:53;;;;;;;;;;;;;;;-144.99;100.00;52545.94;5063532;28;19928;-70
2022/11/24 05:45:20;;;;;;;;;;;;;;;-144.99;100.00;52562.25;5058935;28;19941;-71
2022/11/24 05:47:48;;;;;;;;;;;;;;;-144.99;100.00;52545.94;5064528;28;20387;-70
2022/11/24 05:50:15;;;;;;;;;;;;;;;-144.99;100.00;52570.38;5060034;28;20427;-71
2022/11/24 05:52:43;;;;;;;;;;;;;;;-144.99;100.00;52545.94;5064192;28;20068;-71
2022/11/24 05:55:10;;;;;;;;;;;;;;;-144.99;100.00;52533.69;5069304;28;20419;-70
2022/11/24 05:57:37;;;;;;;;;;;;;;;-144.99;100.00;52562.25;5062588;28;20027;-69
2022/11/24 06:00:05;;;;;;;;;;;;;;;-144.99;100.00;52543.91;5062777;28;20373;-70
2022/11/24 06:02:32;;;;;;;;;;;;;;;-144.99;100.00;52541.84;5065021;28;19962;-70
2022/11/24 06:04:58;;;;;;;;;;;;;;;-144.99;100.00;52554.09;5068188;28;19933;-72
2022/11/24 06:07:25;;;;;;;;;;;;;;;-144.99;100.00;52529.63;5067871;23;20013;-75
2022/11/24 06:09:53;;;;;;;;;;;;;;;-144.99;100.00;52558.16;5038979;28;19979;-76
2022/11/24 06:12:20;;;;;;;;;;;;;;;-144.99;100.00;52525.56;5034360;28;19941;-75
2022/11/24 06:14:46;;;;;;;;;;;;;;;-144.99;100.00;52517.41;5036026;28;20399;-75
2022/11/24 06:17:13;;;;;;;;;;;;;;;-144.99;100.00;52556.13;5036479;28;19951;-78
2022/11/24 06:19:39;;;;;;;;;;;;;;;-144.99;100.00;52515.34;5042885;28;19957;-77
2022/11/24 06:22:06;;;;;;;;;;;;;;;-144.99;100.00;52525.56;5033518;28;19944;-78
2022/11/24 06:24:32;;;;;;;;;;;;;;;-144.99;100.00;52492.94;4339004;28;10000852;-76
2022/11/24 06:27:01;;;;;;;;;;;;;;;-144.99;100.00;52513.31;5039609;28;19980;-79
2022/11/24 06:29:27;;;;;;;;;;;;;;;-144.99;100.00;52558.16;5036214;28;19941;-78
2022/11/24 06:31:54;;;;;;;;;;;;;;;-144.99;100.00;52554.09;5044983;28;19944;-77
2022/11/24 06:34:20;;;;;;;;;;;;;;;-144.99;100.00;52523.50;5054546;28;20000;-76
2022/11/24 06:36:47;;;;;;;;;;;;;;;-144.99;100.00;52505.16;5036265;28;20429;-78
2022/11/24 06:39:16;;;;;;;;;;;;;;;-144.99;100.00;52537.78;5044237;28;20210;-74
2022/11/24 06:41:43;;;;;;;;;;;;;;;-144.99;100.00;52476.63;5047885;28;20472;-76
2022/11/24 06:44:10;;;;;;;;;;;;;;;-144.99;100.00;52505.16;5040187;28;19994;-77
2022/11/24 06:46:37;;;;;;;;;;;;;;;-144.99;100.00;52531.66;5034139;28;20362;-76
2022/11/24 06:49:04;;;;;;;;;;;;;;;-144.99;100.00;52529.63;5037416;28;19968;-80
2022/11/24 06:51:30;;;;;;;;;;;;;;;-144.99;100.00;52488.84;5048741;28;19952;-76
2022/11/24 06:53:56;;;;;;;;;;;;;;;-144.99;100.00;52527.59;5057703;28;20523;-76
2022/11/24 06:56:23;;;;;;;;;;;;;;;-144.99;100.00;52545.94;5041797;28;20207;-78
2022/11/24 06:58:51;;;;;;;;;;;;;;;-144.99;100.00;52529.63;5040344;28;19963;-78
2022/11/24 07:01:20;;;;;;;;;;;;;;;-144.99;100.00;52517.41;5032321;28;20003;-76
2022/11/24 07:03:47;;;;;;;;;;;;;;;-144.99;100.00;52533.69;5029735;28;19982;-75
2022/11/24 07:06:13;;;;;;;;;;;;;;;-144.99;100.00;52488.84;5041754;28;19991;-76
2022/11/24 07:08:40;;;;;;;;;;;;;;;-144.99;100.00;52537.78;5037149;28;20041;-76
2022/11/24 07:11:07;;;;;;;;;;;;;;;-144.99;100.00;52566.31;5029975;28;20435;-77
2022/11/24 07:13:34;;;;;;;;;;;;;;;-144.99;100.00;52541.84;5031580;28;20355;-76
2022/11/24 07:16:09;;;;;;;;;;;;;;;-144.99;100.00;52517.41;5036797;28;19952;-76
2022/11/24 07:18:37;;;;;;;;;;;;;;;-144.99;100.00;52521.47;5033187;28;20425;-77
2022/11/24 07:21:03;;;;;;;;;;;;;;;-144.99;100.00;52570.38;5038364;28;19947;-74
2022/11/24 07:23:30;;;;;;;;;;;;;;;-144.99;100.00;52503.13;5023341;28;19937;-78
2022/11/24 07:25:57;;;;;;;;;;;;;;;-144.99;100.00;52533.69;5021992;28;19958;-75
2022/11/24 07:28:24;;;;;;;;;;;;;;;-144.99;100.00;52582.63;5039017;28;20430;-73
2022/11/24 07:30:51;;;;;;;;;;;;;;;-144.99;100.00;52554.09;5030215;28;20031;-77
2022/11/24 07:33:20;;;;;;;;;;;;;;;-144.99;100.00;52533.69;5045265;28;20366;-76
2022/11/24 07:35:48;;;;;;;;;;;;;;;-144.99;100.00;52525.56;5035890;28;19972;-74
2022/11/24 07:38:14;;;;;;;;;;;;;;;-144.99;100.00;52543.91;5037723;28;19976;-77
2022/11/24 07:40:41;;;;;;;;;;;;;;;-144.99;100.00;52545.94;5039527;28;19963;-77
2022/11/24 07:43:08;;;;;;;;;;;;;;;-144.99;100.00;52537.78;4694889;28;10000165;-75
2022/11/24 07:45:34;;;;;;;;;;;;;;;-144.99;100.00;52517.41;5033211;28;19945;-77
2022/11/24 07:48:00;;;;;;;;;;;;;;;-144.99;100.00;52497.00;5039057;28;19968;-78
2022/11/24 07:50:27;;;;;;;;;;;;;;;-144.99;100.00;52509.25;4691433;28;10000242;-76
2022/11/24 07:52:55;;;;;;;;;;;;;;;-144.99;100.00;52545.94;5043558;28;19976;-77
2022/11/24 07:55:21;;;;;;;;;;;;;;;-144.99;100.00;52541.84;5049589;28;19966;-75
2022/11/24 07:57:48;;;;;;;;;;;;;;;-144.99;100.00;52513.31;5042019;28;20104;-75
2022/11/24 08:00:14;;;;;;;;;;;;;;;-144.99;100.00;52472.56;5037399;28;19957;-74
2022/11/24 08:02:41;;;;;;;;;;;;;;;-144.99;100.00;52521.47;5053309;28;19982;-75
2022/11/24 08:05:08;;;;;;;;;;;;;;;-144.99;100.00;52545.94;5029509;28;20167;-77
2022/11/24 08:07:34;;;;;;;;;;;;;;;-144.99;100.00;52521.47;4976516;28;1847180;-74
2022/11/24 08:10:02;;;;;;;;;;;;;;;-144.99;100.00;52521.47;5037464;28;19962;-76
2022/11/24 08:12:29;;;;;;;;;;;;;;;-144.99;100.00;52541.84;5041081;28;20029;-76
2022/11/24 08:14:55;;;;;;;;;;;;;;;-144.99;100.00;52501.09;5033322;28;20047;-76
2022/11/24 08:17:22;;;;;;;;;;;;;;;-144.99;100.00;52509.25;5039526;28;19963;-76
2022/11/24 08:19:48;;;;;;;;;;;;;;;-144.99;100.00;52517.41;5037236;28;20026;-77
2022/11/24 08:22:15;;;;;;;;;;;;;;;-144.99;100.00;52529.63;5038500;28;20010;-76
2022/11/24 08:24:45;;;;;;;;;;;;;;;-144.99;100.00;52509.25;5041267;28;19950;-76
2022/11/24 08:27:14;;;;;;;;;;;;;;;-144.99;100.00;52545.94;5041059;28;19960;-76
2022/11/24 08:29:40;;;;;;;;;;;;;;;-144.99;100.00;52533.69;5035461;28;19978;-77
2022/11/24 08:32:07;;;;;;;;;;;;;;;-144.99;100.00;52527.59;5038811;28;20005;-75
2022/11/24 08:34:34;;;;;;;;;;;;;;;-144.99;100.00;52521.47;5042205;28;19965;-73
2022/11/24 08:37:00;;;;;;;;;;;;;;;-144.99;100.00;52497.00;5033862;28;20559;-77
2022/11/24 08:39:27;;;;;;;;;;;;;;;-144.99;100.00;52503.13;5035751;28;20392;-77
2022/11/24 08:41:53;;;;;;;;;;;;;;;-144.99;100.00;52521.47;5039791;28;19947;-76
2022/11/24 08:44:21;;;;;;;;;;;;;;;-144.99;100.00;52533.69;5036559;28;20364;-75
2022/11/24 08:46:48;;;;;;;;;;;;;;;-144.99;100.00;52507.19;5037980;28;19925;-76
2022/11/24 08:49:15;;;;;;;;;;;;;;;-144.99;100.00;52521.47;5029727;28;20340;-76
2022/11/24 08:51:42;;;;;;;;;;;;;;;-144.99;100.00;52497.00;5045107;28;20050;-76
2022/11/24 08:54:12;;;;;;;;;;;;;;;-144.99;100.00;52517.41;5044873;28;20414;-76
2022/11/24 08:56:38;;;;;;;;;;;;;;;-144.99;100.00;52521.47;5050067;28;19942;-76
2022/11/24 08:59:05;;;;;;;;;;;;;;;-144.99;100.00;52509.25;5027659;28;19982;-76
2022/11/24 09:01:33;;;;;;;;;;;;;;;-144.99;100.00;52509.25;5030619;28;19959;-76
2022/11/24 09:04:00;;;;;;;;;;;;;;;-144.99;100.00;52562.25;5044015;28;19936;-77
2022/11/24 09:06:29;;;;;;;;;;;;;;;-144.99;100.00;52507.19;5042321;28;19970;-76
2022/11/24 09:08:56;;;;;;;;;;;;;;;-144.99;100.00;52486.81;5028552;28;20011;-77
2022/11/24 09:11:23;;;;;;;;;;;;;;;-144.99;100.00;52472.56;5028206;28;19936;-74
2022/11/24 09:13:50;;;;;;;;;;;;;;;-144.99;100.00;52509.25;5039313;28;19939;-77
2022/11/24 09:16:17;;;;;;;;;;;;;;;-144.99;100.00;52501.09;5052664;28;20334;-76
2022/11/24 09:18:46;;;;;;;;;;;;;;;-144.99;100.00;52513.31;5039447;28;19971;-76
2022/11/24 09:21:13;;;;;;;;;;;;;;;-144.99;100.00;52488.84;5028919;28;19954;-75
2022/11/24 09:23:40;;;;;;;;;;;;;;;-144.99;100.00;52509.25;5042388;28;19950;-75
2022/11/24 09:26:07;;;;;;;;;;;;;;;-144.99;100.00;52499.06;5048076;28;20371;-76
2022/11/24 09:28:34;;;;;;;;;;;;;;;-144.99;100.00;52543.91;5050474;28;20354;-75
2022/11/24 09:31:01;;;;;;;;;;;;;;;-144.99;100.00;52541.84;5027835;28;19962;-76
2022/11/24 09:33:27;;;;;;;;;;;;;;;-144.99;100.00;52476.63;5026948;28;20016;-75
2022/11/24 09:35:55;;;;;;;;;;;;;;;-144.99;100.00;52505.16;5044645;28;19973;-77
2022/11/24 09:38:24;;;;;;;;;;;;;;;-144.99;100.00;52519.44;5039906;28;19984;-79
2022/11/24 09:40:52;;;;;;;;;;;;;;;-144.99;100.00;52472.56;5042015;28;19943;-76
2022/11/24 09:43:26;;;;;;;;;;;;;;;-144.99;100.00;52484.78;5027325;28;19944;-76
2022/11/24 09:45:56;;;;;;;;;;;;;;;-144.99;100.00;52517.41;5045369;28;20241;-75
2022/11/24 09:48:27;;;;;;;;;;;;;;;-144.99;100.00;52517.41;5034038;28;20262;-76
2022/11/24 09:50:57;;;;;;;;;;;;;;;-144.99;100.00;52533.69;5033660;28;19972;-77
2022/11/24 09:53:29;;;;;;;;;;;;;;;-144.99;100.00;52452.16;5050203;28;20088;-77
2022/11/24 09:55:57;;;;;;;;;;;;;;;-144.99;100.00;52505.16;5043742;28;19969;-77
2022/11/24 09:58:35;;;;;;;;;;;;;;;-144.99;100.00;52460.31;5044614;28;19967;-75
2022/11/24 10:01:04;;;;;;;;;;;;;;;-144.99;98.65;52476.63;5040584;28;20388;-77
2022/11/24 10:03:32;;;;;;;;;;;;;;;-144.99;97.89;52460.31;5026894;28;20158;-78
2022/11/24 10:06:03;;;;;;;;;;;;;;;-144.99;98.09;52468.47;5044857;28;20092;-78
2022/11/24 10:08:40;;;;;;;;;;;;;;;-144.99;96.17;52511.28;5040690;28;19971;-77
2022/11/24 10:11:11;;;;;;;;;;;;;;;-144.99;94.80;52454.22;5029169;28;19963;-76
2022/11/24 10:13:46;;;;;;;;;;;;;;;-144.99;93.59;52484.78;5052506;28;20000;-77
2022/11/24 10:16:18;;;;;;;;;;;;;;;-144.99;94.45;52472.56;5042531;28;20096;-76
2022/11/24 10:18:55;;;;;;;;;;;;;;;-144.99;95.14;52488.84;5054043;28;19959;-76
2022/11/24 10:21:34;;;;;;;;;;;;;;;-144.99;94.63;52407.31;5042770;28;19947;-75
2022/11/24 10:24:12;;;;;;;;;;;;;;;-144.99;89.50;52403.25;5030668;28;19925;-76
2022/11/24 10:26:42;;;;;;;;;;;;;;;-144.99;82.61;52427.72;5033434;28;20223;-76
2022/11/24 10:29:14;;;;;;;;;;;;;;;-144.99;79.54;52366.56;5039421;28;20388;-76
2022/11/24 10:31:42;;;;;;;;;;;;;;;-144.99;75.95;52342.09;5036675;28;19957;-75
2022/11/24 10:34:12;;;;;;;;;;;;;;;-144.99;69.54;52354.34;5037632;28;19995;-76
2022/11/24 10:36:45;;;;;;;;;;;;;;;-144.99;63.33;52295.22;5031831;28;19998;-77
2022/11/24 10:39:18;;;;;;;;;;;;;;;-144.99;60.27;52333.94;5049756;28;19967;-75
2022/11/24 10:41:49;;;;;;;;;;;;;;;-144.99;57.24;52293.19;5068222;28;20010;-76
2022/11/24 10:44:16;;;;;;;;;;;;;;;-144.99;54.87;52342.09;5051925;28;19949;-77
2022/11/24 10:46:42;;;;;;;;;;;;;;;-144.99;54.88;52313.56;5046039;28;20026;-78
2022/11/24 10:49:14;;;;;;;;;;;;;;;-144.99;54.30;52268.72;5041766;28;19951;-78
2022/11/24 10:51:46;;;;;;;;;;;;;;;-144.99;54.79;52287.06;5045220;28;20416;-76
2022/11/24 10:54:16;;;;;;;;;;;;;;;-144.99;53.38;52268.72;5040292;28;20375;-78
2022/11/24 10:56:43;;;;;;;;;;;;;;;-144.99;52.33;52289.13;5030561;28;20174;-77
2022/11/24 10:59:29;;;;;;;;;;;;;;;-144.99;50.76;52264.66;5057684;28;19942;-76
2022/11/24 11:01:56;;;;;;;;;;;;;;;-144.99;50.67;52256.50;5036314;28;19943;-76
2022/11/24 11:04:25;;;;;;;;;;;;;;;-144.99;48.64;52262.63;5028798;28;20368;-77
2022/11/24 11:07:06;;;;;;;;;;;;;;;-144.99;47.19;52240.19;5038952;28;20443;-75
2022/11/24 11:09:33;;;;;;;;;;;;;;;-144.99;47.91;52374.72;5052331;28;19943;-78
2022/11/24 11:12:08;;;;;;;;;;;;;;;-144.99;49.00;52362.50;5037573;28;19949;-75
2022/11/24 11:14:37;;;;;;;;;;;;;;;-144.99;50.78;52419.56;5029232;28;19964;-76
2022/11/24 11:17:23;;;;;;;;;;;;;;;-144.99;52.15;52395.09;5030170;28;19929;-76
2022/11/24 11:19:51;;;;;;;;;;;;;;;-144.99;52.93;52358.41;5056638;28;19977;-77
2022/11/24 11:22:24;;;;;;;;;;;;;;;-144.99;54.17;52454.22;5041482;28;19941;-76
2022/11/24 11:25:02;;;;;;;;;;;;;;;-144.99;55.17;52476.63;5043201;28;19988;-77
2022/11/24 11:27:28;;;;;;;;;;;;;;;-144.99;56.43;52476.63;5043258;28;20002;-76
2022/11/24 11:30:09;;;;;;;;;;;;;;;-144.99;59.56;52511.28;5051911;28;20006;-77
2022/11/24 11:32:49;;;;;;;;;;;;;;;-144.99;63.24;52541.84;5040890;28;20080;-76
2022/11/24 11:35:15;;;;;;;;;;;;;;;-144.99;67.40;52541.84;5035824;28;19967;-78
2022/11/24 11:37:44;;;;;;;;;;;;;;;-144.99;71.69;52550.00;5037722;28;19966;-76
2022/11/24 11:40:13;;;;;;;;;;;;;;;-144.99;74.69;52558.16;5043328;28;19947;-76
2022/11/24 11:42:43;;;;;;;;;;;;;;;-144.99;78.62;52529.63;5048056;28;20410;-77
2022/11/24 11:45:12;;;;;;;;;;;;;;;-144.99;82.27;52509.25;5033209;28;19941;-76
2022/11/24 11:47:41;;;;;;;;;;;;;;;-144.99;84.12;52554.09;5044158;28;20006;-75
2022/11/24 11:50:11;;;;;;;;;;;;;;;-144.99;84.70;52594.84;5043032;28;20006;-76
2022/11/24 11:52:47;;;;;;;;;;;;;;;-144.99;86.01;52566.31;5057418;28;19971;-76
2022/11/24 11:55:20;;;;;;;;;;;;;;;-144.99;87.79;52550.00;5039480;28;20081;-76
2022/11/24 11:57:53;;;;;;;;;;;;;;;-144.99;89.60;52582.63;5032635;28;20362;-76
2022/11/24 12:00:21;;;;;;;;;;;;;;;-144.99;90.53;52545.94;5046142;28;20038;-76
2022/11/24 12:03:00;;;;;;;;;;;;;;;-144.99;90.54;52572.44;5031308;28;20283;-77
2022/11/24 12:05:30;;;;;;;;;;;;;;;-144.99;90.22;52590.78;5047572;28;19958;-76
2022/11/24 12:08:06;;;;;;;;;;;;;;;-144.99;91.09;52529.63;5047349;28;20504;-76
2022/11/24 12:10:36;;;;;;;;;;;;;;;-144.99;90.70;52570.38;5048953;28;20379;-77
2022/11/24 12:13:11;;;;;;;;;;;;;;;-144.99;90.85;52558.16;5037149;28;19973;-76
2022/11/24 12:15:41;;;;;;;;;;;;;;;-144.99;91.74;52594.84;5058713;28;19968;-77
2022/11/24 12:18:20;;;;;;;;;;;;;;;-144.99;92.73;52621.34;5034630;28;20031;-76
2022/11/24 12:20:55;;;;;;;;;;;;;;;-144.99;92.53;52590.78;5048973;28;19945;-77
2022/11/24 12:23:28;;;;;;;;;;;;;;;-144.99;93.02;52566.31;5060629;28;20357;-75
2022/11/24 12:25:59;;;;;;;;;;;;;;;-144.99;92.23;52568.34;5050037;28;19943;-77